Time;durP1;ratioP1;P1;durP2;ratioP2;P2;SDS_P1;SDS_P2;PMS_P1;PMS_P2;Temp;Humidity;BMP_temperature;BMP_pressure;BME280_temperature;BME280_humidity;BME280_pressure;Samples;Min_cycle;Max_cycle;Signal;HPM_P1;HPM_P2
2022/07/06 00:00:53;;;;;;;3.00;1.97;;;;;;;24.54;53.69;100884.88;5080092;28;20182;-64
2022/07/06 00:03:19;;;;;;;3.97;2.13;;;;;;;24.58;53.64;100884.91;5084074;28;20181;-64
2022/07/06 00:05:44;;;;;;;3.77;2.33;;;;;;;24.60;53.70;100886.16;5089939;28;20206;-64
2022/07/06 00:08:09;;;;;;;5.47;1.70;;;;;;;24.57;53.59;100886.94;5093401;28;20619;-64
2022/07/06 00:10:35;;;;;;;4.50;1.83;;;;;;;24.58;53.27;100890.66;5093857;28;20177;-64
2022/07/06 00:13:00;;;;;;;4.93;1.63;;;;;;;24.58;52.91;100894.41;5091065;28;20233;-65
2022/07/06 00:15:26;;;;;;;8.30;1.67;;;;;;;24.58;53.00;100896.44;5091706;28;20209;-65
2022/07/06 00:17:51;;;;;;;4.07;1.03;;;;;;;24.58;52.98;100899.34;5090415;28;20599;-64
2022/07/06 00:20:17;;;;;;;3.87;1.70;;;;;;;24.58;53.19;100902.22;5093290;28;20295;-64
2022/07/06 00:22:42;;;;;;;3.33;1.90;;;;;;;24.58;53.11;100899.34;5093961;28;20589;-64
2022/07/06 00:25:08;;;;;;;3.90;1.73;;;;;;;24.56;53.04;100905.50;5093731;28;20178;-64
2022/07/06 00:27:33;;;;;;;3.13;1.70;;;;;;;24.56;52.96;100901.78;5092746;28;20175;-64
2022/07/06 00:29:59;;;;;;;3.60;1.90;;;;;;;24.53;52.31;100899.72;5084250;28;20921;-64
2022/07/06 00:32:25;;;;;;;4.00;1.83;;;;;;;24.49;51.73;100904.66;5073757;28;20199;-64
2022/07/06 00:34:50;;;;;;;4.30;1.60;;;;;;;24.45;51.45;100904.66;5074421;28;20183;-64
2022/07/06 00:37:16;;;;;;;4.83;1.73;;;;;;;24.42;52.09;100910.38;5094162;28;20425;-64
2022/07/06 00:39:41;;;;;;;4.20;1.70;;;;;;;24.37;51.20;100908.72;5093707;28;20171;-65
2022/07/06 00:42:07;;;;;;;4.23;1.60;;;;;;;24.37;51.97;100919.44;5092277;28;20189;-65
2022/07/06 00:44:33;;;;;;;4.13;1.77;;;;;;;24.35;51.70;100916.97;5080520;28;20536;-65
2022/07/06 00:46:59;;;;;;;4.47;2.07;;;;;;;24.31;51.27;100916.13;5094010;28;20174;-65
2022/07/06 00:52:08;;;;;;;10.20;1.77;;;;;;;24.33;51.56;100916.53;5091759;28;20485;-64
2022/07/06 00:54:34;;;;;;;4.60;1.90;;;;;;;24.33;51.94;100924.41;5091522;28;20428;-64
2022/07/06 00:56:59;;;;;;;3.63;1.43;;;;;;;24.36;52.17;100923.56;5089083;28;20174;-64
2022/07/06 00:59:24;;;;;;;5.33;2.00;;;;;;;24.38;52.05;100927.69;5090608;28;20182;-64
2022/07/06 01:01:50;;;;;;;4.10;1.90;;;;;;;24.36;51.65;100917.78;5094462;28;20182;-63
2022/07/06 01:04:16;;;;;;;4.83;2.07;;;;;;;24.33;51.88;100922.31;5095071;28;20178;-63
2022/07/06 01:06:41;;;;;;;3.10;1.60;;;;;;;24.35;52.12;100924.81;5089976;28;20194;-65
2022/07/06 01:09:07;;;;;;;5.77;1.57;;;;;;;24.37;52.06;100923.16;5091668;28;20582;-63
2022/07/06 01:11:32;;;;;;;3.30;1.40;;;;;;;24.37;52.60;100914.50;5091851;28;20171;-64
2022/07/06 01:13:58;;;;;;;4.40;1.73;;;;;;;24.37;52.21;100919.44;5091251;28;20666;-64
2022/07/06 01:16:23;;;;;;;2.80;1.70;;;;;;;24.37;52.25;100917.38;5091724;28;20171;-64
2022/07/06 01:18:48;;;;;;;3.90;1.80;;;;;;;24.37;52.01;100919.44;5091659;28;20171;-64
2022/07/06 01:21:14;;;;;;;4.97;1.63;;;;;;;24.32;52.04;100917.78;5095387;28;20179;-65
2022/07/06 01:23:43;;;;;;;4.03;1.60;;;;;;;24.33;52.25;100902.13;5095942;28;20186;-63
2022/07/06 01:26:13;;;;;;;2.30;1.70;;;;;;;24.34;52.29;100900.06;5084183;28;20708;-65
2022/07/06 01:28:38;;;;;;;3.80;1.50;;;;;;;24.36;52.32;100904.19;5071262;28;20453;-65
2022/07/06 01:31:03;;;;;;;5.30;1.73;;;;;;;24.35;52.29;100905.44;5072329;28;20417;-65
2022/07/06 01:33:29;;;;;;;2.80;1.60;;;;;;;24.35;52.54;100910.38;5072726;28;20207;-65
2022/07/06 01:35:54;;;;;;;5.93;1.97;;;;;;;24.31;51.65;100904.59;5072700;28;20171;-65
2022/07/06 01:38:20;;;;;;;2.90;1.57;;;;;;;24.29;51.90;100912.00;5073238;28;20174;-65
2022/07/06 01:40:45;;;;;;;4.13;1.93;;;;;;;24.29;51.70;100912.81;5092577;28;20547;-65
2022/07/06 01:43:10;;;;;;;3.33;1.70;;;;;;;24.28;51.86;100922.72;5092680;28;20167;-65
2022/07/06 01:45:36;;;;;;;3.27;1.60;;;;;;;24.29;52.13;100924.34;5092067;28;20186;-65
2022/07/06 01:48:05;;;;;;;4.13;1.93;;;;;;;24.28;51.98;100922.72;5092309;28;20182;-64
2022/07/06 01:50:31;;;;;;;8.20;1.90;;;;;;;24.26;52.16;100919.41;5091852;28;20261;-65
2022/07/06 01:52:58;;;;;;;3.30;1.87;;;;;;;24.28;52.25;100916.13;5092426;28;20452;-65
2022/07/06 01:55:24;;;;;;;5.63;1.67;;;;;;;24.29;52.43;100912.81;5091233;28;20178;-65
2022/07/06 01:57:50;;;;;;;2.80;1.73;;;;;;;24.28;52.18;100914.03;5092507;28;20417;-65
2022/07/06 02:00:15;;;;;;;4.20;2.10;;;;;;;24.24;51.51;100916.09;5091096;28;20174;-65
2022/07/06 02:02:40;;;;;;;4.27;1.73;;;;;;;24.22;51.26;100917.72;5090785;28;20265;-65
2022/07/06 02:05:06;;;;;;;5.37;1.90;;;;;;;24.17;51.68;100921.00;5090453;28;20244;-65
2022/07/06 02:07:32;;;;;;;2.83;1.70;;;;;;;24.15;51.37;100917.69;5090107;28;20229;-64
2022/07/06 02:09:57;;;;;;;3.57;1.60;;;;;;;24.16;51.57;100917.31;5091305;28;20503;-64
2022/07/06 02:12:23;;;;;;;2.97;1.90;;;;;;;24.18;52.16;100916.91;5091465;28;20205;-64
2022/07/06 02:14:48;;;;;;;2.63;1.70;;;;;;;24.18;51.70;100923.47;5090302;28;20211;-64
2022/07/06 02:17:13;;;;;;;7.37;2.00;;;;;;;24.16;51.66;100920.19;5089918;28;20222;-64
2022/07/06 02:19:39;;;;;;;2.40;1.57;;;;;;;24.17;51.79;100918.94;5085496;28;20186;-64
2022/07/06 02:22:04;;;;;;;3.63;2.10;;;;;;;24.13;51.61;100920.97;5076093;28;20171;-64
2022/07/06 02:24:30;;;;;;;6.43;2.30;;;;;;;24.08;51.53;100918.47;5088429;28;20592;-64
2022/07/06 02:26:55;;;;;;;4.97;2.20;;;;;;;24.08;51.45;100923.44;5088090;28;20231;-64
2022/07/06 02:29:21;;;;;;;3.87;1.87;;;;;;;24.12;52.11;100922.22;5088164;28;20653;-64
2022/07/06 02:31:46;;;;;;;3.53;1.83;;;;;;;24.14;52.12;100924.72;5089910;28;20182;-64
2022/07/06 02:34:12;;;;;;;4.57;1.87;;;;;;;24.14;51.86;100921.81;5089404;28;20664;-64
2022/07/06 02:36:37;;;;;;;2.60;2.03;;;;;;;24.14;52.27;100928.41;5089310;28;20182;-64
2022/07/06 02:39:03;;;;;;;4.10;1.80;;;;;;;24.14;51.91;100928.41;5090201;28;20185;-64
2022/07/06 02:41:28;;;;;;;4.07;1.67;;;;;;;24.13;51.52;100929.63;5091571;28;20170;-64
2022/07/06 02:43:54;;;;;;;5.30;2.00;;;;;;;24.11;51.36;100932.09;5091262;28;20186;-64
2022/07/06 02:46:19;;;;;;;4.03;2.10;;;;;;;24.10;51.41;100930.47;5091466;28;20189;-64
2022/07/06 02:48:44;;;;;;;2.70;1.80;;;;;;;24.09;51.94;100931.66;5091477;28;20179;-64
2022/07/06 02:51:10;;;;;;;5.83;2.27;;;;;;;24.06;51.75;100929.59;5091468;28;20519;-64
2022/07/06 02:53:35;;;;;;;6.13;2.10;;;;;;;24.07;51.70;100924.66;5091516;28;20210;-64
2022/07/06 02:56:01;;;;;;;3.37;1.83;;;;;;;24.05;51.20;100930.84;5091260;28;20589;-64
2022/07/06 02:58:26;;;;;;;9.20;1.90;;;;;;;24.06;51.58;100935.38;5091401;28;20178;-64
2022/07/06 03:00:51;;;;;;;2.90;1.87;;;;;;;24.04;51.34;100940.72;5091470;28;20174;-64
2022/07/06 03:03:17;;;;;;;4.10;2.03;;;;;;;24.06;51.78;100938.25;5093477;28;20162;-64
2022/07/06 03:05:42;;;;;;;4.40;1.90;;;;;;;24.04;51.49;100946.47;5095478;28;20588;-64
2022/07/06 03:08:08;;;;;;;3.93;2.10;;;;;;;24.04;51.50;100949.38;5094796;28;20608;-64
2022/07/06 03:10:33;;;;;;;3.40;2.10;;;;;;;24.02;51.14;100951.00;5094458;28;20231;-64
2022/07/06 03:12:59;;;;;;;5.03;1.97;;;;;;;24.03;51.07;100961.31;5094080;28;20426;-64
2022/07/06 03:15:24;;;;;;;3.13;2.10;;;;;;;24.01;51.13;100958.00;5094316;28;20170;-64
2022/07/06 03:17:50;;;;;;;7.83;2.20;;;;;;;23.99;51.17;100967.06;5094390;28;20185;-64
2022/07/06 03:20:15;;;;;;;3.97;2.00;;;;;;;24.02;51.88;100962.53;5085029;28;20570;-64
2022/07/06 03:22:40;;;;;;;8.33;2.13;;;;;;;24.05;52.00;100964.63;5074937;28;20171;-64
2022/07/06 03:25:06;;;;;;;4.90;2.00;;;;;;;24.05;52.20;100964.63;5093178;28;20553;-65
2022/07/06 03:27:33;;;;;;;5.47;2.10;;;;;;;24.06;52.01;100963.38;5095002;28;20259;-64
2022/07/06 03:29:59;;;;;;;3.17;2.10;;;;;;;24.06;51.90;100954.72;5095313;28;20198;-64
2022/07/06 03:32:24;;;;;;;3.77;2.17;;;;;;;24.05;51.70;100971.25;5093943;28;20470;-64
2022/07/06 03:34:50;;;;;;;5.07;1.83;;;;;;;24.02;51.34;100957.59;5093429;28;20174;-64
2022/07/06 03:37:15;;;;;;;4.70;1.93;;;;;;;23.99;51.32;100961.28;5093512;28;20174;-65
2022/07/06 03:39:40;;;;;;;4.30;1.70;;;;;;;23.98;51.09;100958.81;5093493;28;20190;-65
2022/07/06 03:42:06;;;;;;;3.70;1.90;;;;;;;23.98;52.00;100958.81;5094525;28;20190;-64
2022/07/06 03:44:31;;;;;;;3.17;1.90;;;;;;;23.97;51.45;100966.63;5094696;28;20182;-64
2022/07/06 03:46:57;;;;;;;2.50;1.80;;;;;;;23.96;51.11;100958.38;5094763;28;20174;-64
2022/07/06 03:49:26;;;;;;;2.50;1.50;;;;;;;23.94;51.30;100969.50;5094920;28;20247;-64
2022/07/06 03:51:52;;;;;;;3.90;2.10;;;;;;;23.94;51.28;100963.72;5094647;28;20178;-64
2022/07/06 03:54:17;;;;;;;5.40;1.97;;;;;;;23.93;51.51;100959.19;5094623;28;20431;-64
2022/07/06 03:56:43;;;;;;;3.70;1.87;;;;;;;23.94;52.10;100960.84;5094606;28;20189;-64
2022/07/06 03:59:08;;;;;;;2.43;1.67;;;;;;;23.95;51.86;100963.34;5094554;28;20182;-64
2022/07/06 04:01:33;;;;;;;2.70;2.10;;;;;;;23.97;51.92;100963.75;5094406;28;20184;-64
2022/07/06 04:03:59;;;;;;;2.90;2.00;;;;;;;23.99;51.91;100963.34;5094580;28;20197;-64
2022/07/06 04:06:24;;;;;;;2.77;2.00;;;;;;;23.98;51.95;100964.59;5094519;28;20645;-64
2022/07/06 04:08:50;;;;;;;4.10;2.13;;;;;;;23.96;51.48;100967.88;5094364;28;20253;-64
2022/07/06 04:11:15;;;;;;;3.70;2.10;;;;;;;23.92;51.60;100972.78;5093816;28;20170;-64
2022/07/06 04:13:41;;;;;;;4.90;2.50;;;;;;;23.92;51.67;100972.78;5093060;28;20208;-64
2022/07/06 04:16:06;;;;;;;2.20;1.50;;;;;;;23.92;51.18;100977.72;5075358;28;20182;-64
2022/07/06 04:18:32;;;;;;;2.73;1.70;;;;;;;23.88;51.17;100971.91;5093758;28;20193;-64
2022/07/06 04:20:58;;;;;;;2.60;1.70;;;;;;;23.87;51.07;100973.13;5078785;28;20230;-64
2022/07/06 04:23:23;;;;;;;3.80;2.00;;;;;;;23.87;51.42;100970.25;5077766;28;20180;-64
2022/07/06 04:25:49;;;;;;;4.20;1.80;;;;;;;23.90;52.12;100975.25;5094043;28;20187;-64
2022/07/06 04:28:14;;;;;;;9.37;2.37;;;;;;;23.91;51.44;100971.13;5093499;28;20232;-64
2022/07/06 04:30:40;;;;;;;5.93;2.13;;;;;;;23.91;51.62;100979.78;5092018;28;20229;-64
2022/07/06 04:33:05;;;;;;;4.93;1.97;;;;;;;23.91;51.45;100978.94;5092040;28;20201;-64
2022/07/06 04:35:31;;;;;;;4.87;2.00;;;;;;;23.91;51.69;100982.69;5091777;28;20213;-64
2022/07/06 04:37:56;;;;;;;4.10;2.33;;;;;;;23.91;51.56;100978.94;5091861;28;20186;-64
2022/07/06 04:40:21;;;;;;;4.80;2.23;;;;;;;23.89;51.19;100985.09;5092037;28;20174;-64
2022/07/06 04:42:47;;;;;;;5.60;2.00;;;;;;;23.90;51.42;100991.72;5091589;28;20179;-64
2022/07/06 04:45:12;;;;;;;7.93;2.27;;;;;;;23.90;51.25;100991.72;5093349;28;20175;-64
2022/07/06 04:47:38;;;;;;;4.47;2.20;;;;;;;23.91;51.12;100991.31;5093815;28;20178;-64
2022/07/06 04:50:04;;;;;;;5.40;2.10;;;;;;;23.90;51.16;100983.91;5093609;28;20182;-64
2022/07/06 04:52:29;;;;;;;2.97;1.83;;;;;;;23.92;51.34;100995.03;5093581;28;20208;-64
2022/07/06 04:54:55;;;;;;;3.57;2.37;;;;;;;23.92;51.41;100995.84;5093663;28;20555;-64
2022/07/06 04:57:20;;;;;;;8.70;2.37;;;;;;;23.92;51.07;100995.84;5093258;28;20186;-64
2022/07/06 04:59:46;;;;;;;10.33;1.90;;;;;;;23.89;51.08;100993.75;5093431;28;20178;-64
2022/07/06 05:02:11;;;;;;;4.87;1.70;;;;;;;23.89;51.27;100992.94;5093352;28;20174;-64
2022/07/06 05:04:37;;;;;;;4.53;2.23;;;;;;;23.92;51.48;100995.84;5093614;28;20183;-64
2022/07/06 05:07:02;;;;;;;4.60;2.60;;;;;;;23.93;51.69;100993.81;5093259;28;20229;-64
2022/07/06 05:09:28;;;;;;;8.60;2.60;;;;;;;23.95;51.73;100994.22;5093270;28;20174;-64
2022/07/06 05:11:53;;;;;;;5.73;2.47;;;;;;;23.91;51.88;100999.13;5077137;28;20198;-64
2022/07/06 05:14:19;;;;;;;6.10;2.17;;;;;;;23.89;52.12;101007.38;5072830;28;20186;-64
2022/07/06 05:16:44;;;;;;;4.90;2.00;;;;;;;23.86;52.02;101003.19;5077586;28;20175;-64
2022/07/06 05:19:10;;;;;;;5.30;2.13;;;;;;;23.86;52.15;101006.09;5093053;28;20179;-64
2022/07/06 05:21:35;;;;;;;4.33;2.13;;;;;;;23.87;52.19;100999.09;5073195;28;20167;-64
2022/07/06 05:24:00;;;;;;;4.40;2.73;;;;;;;23.88;52.06;101005.69;5076603;28;20167;-63
2022/07/06 05:26:29;;;;;;;6.20;2.50;;;;;;;23.92;52.16;101000.78;5074467;28;20183;-63
2022/07/06 05:28:54;;;;;;;3.73;1.90;;;;;;;23.92;52.87;101007.41;5095053;28;20143;-64
2022/07/06 05:31:20;;;;;;;4.17;2.10;;;;;;;23.95;51.84;101005.75;5094219;28;20433;-64
2022/07/06 05:33:45;;;;;;;4.00;2.00;;;;;;;23.93;51.97;101003.28;5093410;28;20204;-64
2022/07/06 05:36:11;;;;;;;4.20;1.83;;;;;;;23.93;52.05;101009.03;5094010;28;20151;-64
2022/07/06 05:38:36;;;;;;;4.73;2.83;;;;;;;23.94;52.10;101002.03;5090925;28;20170;-64
2022/07/06 05:41:01;;;;;;;4.00;2.23;;;;;;;23.94;51.94;101009.88;5091105;28;20178;-64
2022/07/06 05:43:27;;;;;;;4.37;1.77;;;;;;;23.90;52.27;101014.78;5090503;28;20174;-64
2022/07/06 05:45:52;;;;;;;7.43;2.50;;;;;;;23.92;52.06;101016.06;5090825;28;20177;-64
2022/07/06 05:51:02;;;;;;;6.33;2.00;;;;;;;23.90;51.82;101021.41;5091233;28;20168;-63
2022/07/06 05:53:27;;;;;;;5.80;2.03;;;;;;;23.92;52.20;101021.81;5092043;28;20452;-63
2022/07/06 05:55:53;;;;;;;5.13;2.17;;;;;;;23.75;51.87;101021.66;5090934;28;20626;-63
2022/07/06 05:58:18;;;;;;;5.20;2.30;;;;;;;23.82;52.54;101015.91;5090903;28;20175;-63
2022/07/06 06:00:44;;;;;;;4.70;2.07;;;;;;;23.81;52.21;101031.56;5091258;28;20178;-63
2022/07/06 06:03:09;;;;;;;8.40;2.60;;;;;;;23.72;52.37;101029.03;5092259;28;20167;-63
2022/07/06 06:05:34;;;;;;;9.90;2.20;;;;;;;23.77;52.26;101027.81;5092397;28;20209;-63
2022/07/06 06:08:00;;;;;;;6.63;2.37;;;;;;;23.78;51.98;101030.31;5077446;28;20260;-63
2022/07/06 06:10:25;;;;;;;4.03;2.23;;;;;;;23.77;51.81;101028.66;5072164;28;20214;-63
2022/07/06 06:12:51;;;;;;;5.27;1.93;;;;;;;23.50;52.43;101035.84;5089197;28;20195;-63
2022/07/06 06:15:17;;;;;;;6.13;2.10;;;;;;;23.45;51.41;101021.78;5090979;28;20331;-63
2022/07/06 06:17:43;;;;;;;4.03;2.57;;;;;;;23.49;51.88;101028.41;5092319;28;20964;-63
2022/07/06 06:20:10;;;;;;;5.83;2.73;;;;;;;23.56;51.26;101036.28;5091810;28;20209;-64
2022/07/06 06:22:48;;;;;;;7.20;2.20;;;;;;;23.54;51.56;101030.09;5091556;28;20579;-64
2022/07/06 06:25:18;;;;;;;3.23;1.97;;;;;;;23.63;50.92;101030.63;5091813;28;21379;-64
2022/07/06 06:27:44;;;;;;;4.87;2.20;;;;;;;23.65;51.17;101031.03;5091150;28;20432;-64
2022/07/06 06:30:09;;;;;;;5.07;2.23;;;;;;;23.58;50.62;101031.78;5092011;28;20423;-64
2022/07/06 06:32:35;;;;;;;6.33;2.57;;;;;;;23.53;50.99;101025.56;5091567;28;20209;-64
2022/07/06 06:35:00;;;;;;;3.03;2.10;;;;;;;23.35;50.42;101030.31;5091128;28;20178;-64
2022/07/06 06:37:26;;;;;;;5.43;2.13;;;;;;;23.25;51.40;101028.16;5090968;28;20651;-64
2022/07/06 06:39:51;;;;;;;8.77;2.83;;;;;;;23.30;50.83;101031.53;5091352;28;20173;-64
2022/07/06 06:42:17;;;;;;;6.07;2.40;;;;;;;23.24;50.76;101033.09;5090997;28;20542;-64
2022/07/06 06:44:42;;;;;;;6.10;2.40;;;;;;;23.26;50.67;101036.41;5091534;28;20236;-64
2022/07/06 06:47:07;;;;;;;6.27;2.30;;;;;;;23.20;50.44;101040.03;5091063;28;20228;-64
2022/07/06 06:49:33;;;;;;;4.40;1.77;;;;;;;23.21;50.20;101030.16;5090525;28;20189;-64
2022/07/06 06:51:58;;;;;;;6.93;2.07;;;;;;;23.19;50.36;101030.56;5090412;28;20170;-64
2022/07/06 06:54:24;;;;;;;3.73;2.00;;;;;;;23.23;49.96;101036.38;5088805;28;20255;-64
2022/07/06 06:56:49;;;;;;;7.87;2.47;;;;;;;23.12;50.50;101039.09;5090984;28;20182;-64
2022/07/06 06:59:15;;;;;;;5.10;1.90;;;;;;;23.40;49.73;101039.44;5090631;28;20174;-64
2022/07/06 07:01:40;;;;;;;4.50;2.53;;;;;;;23.35;49.61;101034.03;5090687;28;20190;-64
2022/07/06 07:04:06;;;;;;;3.53;1.83;;;;;;;23.39;49.66;101034.88;5090214;28;20645;-64
2022/07/06 07:06:32;;;;;;;5.70;2.07;;;;;;;23.27;50.23;101038.06;5090004;28;20648;-64
2022/07/06 07:08:57;;;;;;;3.57;1.70;;;;;;;23.34;50.47;101032.38;5090527;28;20233;-64
2022/07/06 07:11:23;;;;;;;5.73;1.97;;;;;;;23.34;49.94;101034.44;5090740;28;20658;-64
2022/07/06 07:13:48;;;;;;;5.03;2.03;;;;;;;23.34;49.68;101031.56;5089816;28;20650;-64
2022/07/06 07:16:13;;;;;;;6.70;2.00;;;;;;;23.41;49.69;101037.38;5090654;28;20541;-64
2022/07/06 07:18:39;;;;;;;6.30;1.70;;;;;;;23.35;49.79;101036.09;5087946;28;20190;-64
2022/07/06 07:21:04;;;;;;;5.63;1.80;;;;;;;23.33;50.51;101041.44;5089960;28;20227;-64
2022/07/06 07:23:30;;;;;;;5.53;2.40;;;;;;;23.47;49.66;101038.66;5090361;28;20621;-64
2022/07/06 07:25:55;;;;;;;8.77;2.03;;;;;;;23.39;49.93;101034.88;5091016;28;20522;-64
2022/07/06 07:28:21;;;;;;;3.93;1.57;;;;;;;23.30;49.81;101031.53;5090446;28;20171;-64
2022/07/06 07:30:46;;;;;;;4.03;1.60;;;;;;;23.40;50.20;101036.56;5090963;28;20187;-64
2022/07/06 07:33:12;;;;;;;3.30;1.77;;;;;;;23.40;50.07;101036.56;5090195;28;20209;-64
2022/07/06 07:35:37;;;;;;;4.70;1.80;;;;;;;23.47;49.99;101030.88;5090578;28;20178;-64
2022/07/06 07:38:02;;;;;;;7.37;2.40;;;;;;;23.39;49.96;101045.59;5090527;28;20219;-64
2022/07/06 07:40:28;;;;;;;6.43;2.20;;;;;;;23.20;50.73;101032.25;5090507;28;20182;-64
2022/07/06 07:42:53;;;;;;;4.47;2.10;;;;;;;23.17;49.90;101032.16;5089503;28;20175;-64
2022/07/06 07:45:19;;;;;;;11.20;2.40;;;;;;;23.11;50.27;101033.72;5090866;28;20170;-64
2022/07/06 07:47:44;;;;;;;5.23;2.00;;;;;;;23.10;49.91;101030.03;5089561;28;20182;-64
2022/07/06 07:50:10;;;;;;;4.73;2.20;;;;;;;23.34;50.32;101034.44;5091654;28;20712;-64
2022/07/06 07:52:36;;;;;;;4.40;1.93;;;;;;;23.40;49.83;101032.84;5092253;28;20572;-64
2022/07/06 07:55:01;;;;;;;4.20;2.00;;;;;;;23.42;49.37;101039.88;5090001;28;20190;-64
2022/07/06 07:57:27;;;;;;;4.47;2.00;;;;;;;23.34;49.83;101026.59;5092488;28;20463;-64
2022/07/06 07:59:52;;;;;;;5.57;2.13;;;;;;;23.22;49.97;101035.53;5091667;28;20568;-64
2022/07/06 08:02:17;;;;;;;4.90;2.03;;;;;;;23.31;50.15;101038.09;5093718;28;20190;-64
2022/07/06 08:04:43;;;;;;;6.80;2.30;;;;;;;23.21;49.65;101033.91;5092541;28;20548;-65
2022/07/06 08:07:08;;;;;;;4.40;2.00;;;;;;;23.04;50.90;101028.75;5087852;28;20230;-63
2022/07/06 08:09:34;;;;;;;6.43;2.50;;;;;;;23.20;50.74;101032.25;5092564;28;20651;-64
2022/07/06 08:11:59;;;;;;;7.27;2.70;;;;;;;23.23;50.89;101037.19;5092630;28;20177;-64
2022/07/06 08:14:25;;;;;;;14.43;4.50;;;;;;;23.53;52.33;101046.56;5090206;28;20190;-64
2022/07/06 08:16:50;;;;;;;15.17;4.67;;;;;;;23.66;54.45;101047.94;5091110;28;20196;-64
2022/07/06 08:19:16;;;;;;;7.30;3.17;;;;;;;23.71;51.46;101041.81;5091592;28;20227;-64
2022/07/06 08:21:41;;;;;;;6.17;2.80;;;;;;;23.70;51.73;101045.91;5092828;28;20178;-64
2022/07/06 08:24:07;;;;;;;8.83;2.43;;;;;;;23.84;51.33;101033.66;5089723;28;20186;-64
2022/07/06 08:26:33;;;;;;;5.63;2.97;;;;;;;23.83;50.27;101032.03;5089681;28;20202;-64
2022/07/06 08:28:58;;;;;;;6.80;2.73;;;;;;;23.89;51.59;101031.25;5090413;28;20181;-64
2022/07/06 08:31:24;;;;;;;6.37;2.87;;;;;;;23.99;50.90;101024.75;5091492;28;20170;-64
2022/07/06 08:33:52;;;;;;;6.63;3.40;;;;;;;24.10;51.06;101030.59;5090539;28;20247;-64
2022/07/06 08:36:18;;;;;;;6.60;2.97;;;;;;;24.11;49.84;101023.59;5091110;28;20178;-63
2022/07/06 08:38:43;;;;;;;7.97;3.10;;;;;;;23.83;51.24;101027.06;5090639;28;20446;-63
2022/07/06 08:41:09;;;;;;;7.17;3.70;;;;;;;23.93;50.32;101032.13;5089760;28;20193;-64
2022/07/06 08:43:34;;;;;;;9.60;3.23;;;;;;;24.02;50.51;101035.50;5072188;28;20182;-63
2022/07/06 08:46:00;;;;;;;5.93;3.00;;;;;;;24.01;49.72;101030.13;5090375;28;20182;-64
2022/07/06 08:48:26;;;;;;;8.53;2.40;;;;;;;23.89;49.74;101037.03;5089546;28;20556;-63
2022/07/06 08:50:52;;;;;;;10.93;3.50;;;;;;;23.95;51.03;101034.63;5090033;28;20170;-64
2022/07/06 08:53:18;;;;;;;9.40;3.00;;;;;;;24.09;51.05;101034.72;5090054;28;20460;-64
2022/07/06 08:55:43;;;;;;;5.50;2.60;;;;;;;24.15;50.70;101044.66;5090993;28;20424;-64
2022/07/06 08:58:09;;;;;;;6.03;3.37;;;;;;;24.01;49.87;101042.50;5089997;28;20265;-62
2022/07/06 09:00:34;;;;;;;6.80;2.73;;;;;;;24.18;49.30;101050.44;5088022;28;20634;-63
2022/07/06 09:03:00;;;;;;;7.03;2.03;;;;;;;24.04;49.82;101053.22;5090066;28;20170;-63
2022/07/06 09:05:25;;;;;;;11.83;2.83;;;;;;;24.03;49.61;101042.09;5089578;28;20182;-64
2022/07/06 09:07:51;;;;;;;8.57;2.83;;;;;;;24.13;50.31;101052.91;5088706;28;20623;-64
2022/07/06 09:10:18;;;;;;;5.57;2.53;;;;;;;24.31;50.50;101043.13;5076524;28;20194;-64
2022/07/06 09:12:43;;;;;;;5.33;2.63;;;;;;;24.27;49.69;101048.03;5070266;28;20972;-64
2022/07/06 09:15:09;;;;;;;4.67;2.20;;;;;;;24.14;50.39;101049.59;5088108;28;20432;-63
2022/07/06 09:17:37;;;;;;;7.70;2.77;;;;;;;24.22;50.28;101051.31;5091162;28;20201;-64
2022/07/06 09:20:03;;;;;;;6.53;2.70;;;;;;;24.14;50.08;101048.78;5090531;28;20186;-64
2022/07/06 09:22:31;;;;;;;6.80;2.90;;;;;;;24.24;49.81;101048.84;5090188;28;20425;-64
2022/07/06 09:25:05;;;;;;;11.23;3.20;;;;;;;24.20;50.25;101047.16;5089124;28;20652;-64
2022/07/06 09:27:30;;;;;;;6.60;3.10;;;;;;;24.14;50.75;101046.69;5088178;28;20432;-64
2022/07/06 09:29:59;;;;;;;7.37;2.13;;;;;;;24.25;50.56;101056.28;5088837;28;20485;-64
2022/07/06 09:32:24;;;;;;;5.37;2.60;;;;;;;23.98;50.16;101057.72;5088254;28;20175;-63
2022/07/06 09:34:50;;;;;;;6.83;3.03;;;;;;;24.11;50.40;101056.19;5088949;28;20432;-63
2022/07/06 09:37:15;;;;;;;5.17;2.50;;;;;;;23.87;49.69;101051.00;5087728;28;20173;-63
2022/07/06 09:39:42;;;;;;;4.50;2.80;;;;;;;23.98;50.72;101056.91;5088655;28;20186;-64
2022/07/06 09:42:10;;;;;;;6.83;2.50;;;;;;;24.21;50.23;101054.59;5089294;28;20286;-63
2022/07/06 09:44:37;;;;;;;4.93;2.27;;;;;;;24.25;50.41;101058.34;5089747;28;20439;-63
2022/07/06 09:47:04;;;;;;;6.40;2.90;;;;;;;24.32;50.51;101064.13;5089644;28;20416;-63
2022/07/06 09:49:30;;;;;;;4.60;2.70;;;;;;;24.29;50.26;101060.00;5087866;28;20457;-63
2022/07/06 09:51:57;;;;;;;4.30;2.50;;;;;;;24.24;49.98;101059.56;5089672;28;20432;-63
2022/07/06 09:54:22;;;;;;;4.47;2.43;;;;;;;24.25;49.92;101062.06;5088904;28;20533;-63
2022/07/06 09:56:50;;;;;;;3.53;2.23;;;;;;;24.26;49.66;101059.97;5087992;28;20474;-64
2022/07/06 09:59:17;;;;;;;6.00;2.40;;;;;;;24.19;50.18;101065.72;5087579;28;20283;-64
2022/07/06 10:01:43;;;;;;;6.33;3.10;;;;;;;24.25;50.15;101072.75;5087056;28;20452;-64
2022/07/06 10:04:09;;;;;;;6.33;2.60;;;;;;;24.25;49.93;101067.00;5088211;28;20424;-64
2022/07/06 10:06:35;;;;;;;5.30;2.80;;;;;;;24.28;49.79;101072.78;5088016;28;20201;-64
2022/07/06 10:09:00;;;;;;;7.43;2.90;;;;;;;24.22;49.21;101074.41;5085545;28;20559;-64
2022/07/06 10:11:26;;;;;;;7.20;2.73;;;;;;;24.12;50.14;101057.84;5087377;28;20265;-64
2022/07/06 10:13:56;;;;;;;5.30;2.30;;;;;;;24.23;50.06;101064.50;5085331;28;20326;-64
2022/07/06 10:16:24;;;;;;;10.87;2.70;;;;;;;24.24;49.82;101069.03;5086435;28;20162;-64
2022/07/06 10:18:55;;;;;;;5.07;2.40;;;;;;;24.23;49.90;101067.38;5087252;28;20428;-64
2022/07/06 10:21:24;;;;;;;9.57;2.60;;;;;;;24.32;50.16;101067.03;5087043;28;20428;-63
2022/07/06 10:23:50;;;;;;;5.17;2.50;;;;;;;24.13;50.68;101076.78;5089288;28;20816;-63
2022/07/06 10:26:16;;;;;;;5.27;2.60;;;;;;;24.29;50.50;101073.63;5089828;28;20425;-63
2022/07/06 10:28:42;;;;;;;3.93;2.47;;;;;;;24.28;49.83;101069.09;5088438;28;20954;-64
2022/07/06 10:31:08;;;;;;;5.70;2.57;;;;;;;24.20;49.11;101071.09;5089280;28;20432;-64
2022/07/06 10:33:33;;;;;;;5.20;2.40;;;;;;;24.23;51.03;101067.38;5088245;28;20248;-64
2022/07/06 10:35:59;;;;;;;5.77;2.60;;;;;;;24.29;50.14;101071.53;5071560;28;20429;-65
2022/07/06 10:38:34;;;;;;;10.03;3.13;;;;;;;24.21;49.83;101071.91;5088117;28;20641;-64
2022/07/06 10:41:03;;;;;;;4.70;2.73;;;;;;;24.30;50.10;101070.34;5087634;28;20178;-64
2022/07/06 10:43:36;;;;;;;7.27;3.07;;;;;;;24.37;49.69;101064.59;5088518;28;20468;-64
2022/07/06 10:46:06;;;;;;;6.17;3.20;;;;;;;24.28;50.33;101067.00;5089420;28;20431;-64
2022/07/06 10:48:35;;;;;;;4.93;2.80;;;;;;;24.31;49.22;101060.44;5088874;28;20432;-63
2022/07/06 10:51:04;;;;;;;5.50;2.50;;;;;;;24.19;50.12;101059.94;5089051;28;20427;-64
2022/07/06 10:53:33;;;;;;;4.40;2.40;;;;;;;24.32;50.20;101055.47;5089161;28;20554;-63
2022/07/06 10:55:58;;;;;;;5.93;2.60;;;;;;;24.30;50.44;101058.78;5088888;28;20432;-63
2022/07/06 10:58:52;;;;;;;5.23;2.70;;;;;;;23.86;49.95;101049.34;5088315;28;20447;-63
2022/07/06 11:01:19;;;;;;;5.37;2.23;;;;;;;24.30;50.27;101047.25;5085584;28;20269;-63
2022/07/06 11:03:44;;;;;;;6.30;2.40;;;;;;;24.41;49.97;101053.91;5087843;28;20428;-63
2022/07/06 11:06:17;;;;;;;7.80;2.00;;;;;;;24.36;49.35;101050.56;5089577;28;20432;-63
2022/07/06 11:08:59;;;;;;;4.20;2.40;;;;;;;24.30;50.19;101049.28;5087402;28;20229;-63
2022/07/06 11:11:33;;;;;;;6.67;2.50;;;;;;;24.37;50.28;101050.16;5088876;28;20417;-63
2022/07/06 11:14:03;;;;;;;4.07;1.80;;;;;;;24.41;49.22;101051.03;5088775;28;21005;-63
2022/07/06 11:16:33;;;;;;;5.97;2.43;;;;;;;24.29;49.87;101048.47;5087962;28;20444;-64
2022/07/06 11:19:09;;;;;;;4.10;2.50;;;;;;;24.35;49.29;101048.91;5089929;28;20446;-64
2022/07/06 11:21:46;;;;;;;7.43;2.80;;;;;;;24.42;50.00;101038.25;5083490;28;20565;-63
2022/07/06 11:24:16;;;;;;;9.33;2.60;;;;;;;24.44;50.22;101034.97;5091184;28;20412;-63